Time;durP1;ratioP1;P1;durP2;ratioP2;P2;SDS_P1;SDS_P2;PMS_P1;PMS_P2;Temp;Humidity;BMP_temperature;BMP_pressure;BME280_temperature;BME280_humidity;BME280_pressure;Samples;Min_cycle;Max_cycle;Signal;HPM_P1;HPM_P2
2022/05/14 00:01:55;;;;;;;;;;;;;;;6.20;100.00;100136.34;6217294;23;19912;-94
2022/05/14 00:04:20;;;;;;;;;;;;;;;6.54;100.00;100140.94;6216354;23;20412;-84
2022/05/14 00:06:46;;;;;;;;;;;;;;;6.21;100.00;100148.63;6190291;23;19912;-85
2022/05/14 00:09:11;;;;;;;;;;;;;;;5.75;100.00;100138.91;6216183;23;20288;-85
2022/05/14 03:36:33;;;;;;;;;;;;;;;3.69;88.75;100137.28;6210072;22;19935;-88
2022/05/14 03:38:58;;;;;;;;;;;;;;;3.74;89.50;100140.72;6216381;23;19990;-93
2022/05/14 03:41:24;;;;;;;;;;;;;;;3.80;90.15;100138.03;6189516;23;19962;-88
2022/05/14 03:43:49;;;;;;;;;;;;;;;3.81;90.60;100138.03;6218409;23;19912;-84
2022/05/14 03:46:15;;;;;;;;;;;;;;;3.85;90.86;100143.25;6218821;23;20370;-91
2022/05/14 03:48:40;;;;;;;;;;;;;;;3.79;91.01;100150.25;6219921;23;20220;-85
2022/05/14 03:51:05;;;;;;;;;;;;;;;3.86;91.23;100139.72;6215169;23;19966;-82
2022/05/14 03:53:31;;;;;;;;;;;;;;;3.84;91.28;100141.50;6220094;23;19947;-83
2022/05/14 03:55:57;;;;;;;;;;;;;;;3.82;91.35;100142.34;6216793;23;19998;-82
2022/05/14 03:58:22;;;;;;;;;;;;;;;3.85;91.71;100143.25;6217055;23;19982;-83
2022/05/14 04:00:48;;;;;;;;;;;;;;;3.91;92.00;100143.16;6216139;23;20022;-86
2022/05/14 04:03:13;;;;;;;;;;;;;;;3.88;91.76;100145.78;6215507;23;19924;-84
2022/05/14 04:05:38;;;;;;;;;;;;;;;3.86;92.21;100144.94;6190293;23;19990;-82
2022/05/14 04:08:04;;;;;;;;;;;;;;;3.88;92.19;100145.78;6220764;23;19916;-85
2022/05/14 04:10:30;;;;;;;;;;;;;;;3.82;92.31;100144.13;6225752;23;19919;-96
2022/05/14 04:12:55;;;;;;;;;;;;;;;3.86;92.11;100150.19;6219277;23;19990;-89
2022/05/14 04:15:23;;;;;;;;;;;;;;;3.82;92.11;100147.59;6191218;23;19931;-94
2022/05/14 04:17:49;;;;;;;;;;;;;;;3.88;92.30;100151.03;6216605;23;19957;-93
2022/05/14 04:20:14;;;;;;;;;;;;;;;3.88;92.08;100151.03;6214874;23;19994;-88
2022/05/14 04:22:39;;;;;;;;;;;;;;;3.80;92.21;100141.50;6216085;23;19923;-96
2022/05/14 04:25:05;;;;;;;;;;;;;;;3.89;92.50;100144.94;6215744;23;20316;-93
2022/05/14 04:27:30;;;;;;;;;;;;;;;3.95;93.05;100145.72;6216894;23;19916;-95
2022/05/14 04:29:56;;;;;;;;;;;;;;;3.91;93.09;100148.41;6216227;23;19912;-96
2022/05/14 04:32:21;;;;;;;;;;;;;;;3.93;93.13;100144.03;6216494;23;19926;-95
2022/05/14 04:34:46;;;;;;;;;;;;;;;3.90;93.25;100151.91;6215673;23;20354;-95
2022/05/14 04:37:11;;;;;;;;;;;;;;;3.97;93.53;100143.97;6189775;23;19920;-95
2022/05/14 04:39:37;;;;;;;;;;;;;;;3.96;93.90;100144.84;6216176;23;19999;-92
2022/05/14 04:42:04;;;;;;;;;;;;;;;3.96;93.86;100144.00;6215645;23;19916;-92
2022/05/14 04:44:31;;;;;;;;;;;;;;;3.96;94.08;100147.47;6215860;23;19966;-93
2022/05/14 04:46:56;;;;;;;;;;;;;;;3.99;94.22;100144.81;6216370;23;19919;-95
2022/05/14 04:49:22;;;;;;;;;;;;;;;3.99;94.28;100159.69;6215901;23;19916;-95
2022/05/14 04:51:47;;;;;;;;;;;;;;;4.09;94.64;100147.34;6215041;23;20232;-88
2022/05/14 04:54:13;;;;;;;;;;;;;;;4.08;94.70;100156.97;6215418;23;19922;-96
2022/05/14 04:56:38;;;;;;;;;;;;;;;4.06;94.93;100152.63;6191234;23;19966;-96
2022/05/14 04:59:03;;;;;;;;;;;;;;;4.11;94.99;100158.69;6216174;23;19934;-94
2022/05/14 05:01:29;;;;;;;;;;;;;;;4.03;94.48;100152.66;6225359;23;19912;-95
2022/05/14 05:03:57;;;;;;;;;;;;;;;3.97;93.38;100151.84;6229512;23;19943;-87
2022/05/14 07:52:22;;;;;;;;;;;;;;;4.23;97.01;100187.44;6214765;23;19938;-90
2022/05/14 07:54:47;;;;;;;;;;;;;;;4.23;97.29;100187.44;6245322;23;19947;-89
2022/05/14 07:57:12;;;;;;;;;;;;;;;4.26;97.69;100183.88;6245504;23;19912;-91
2022/05/14 07:59:38;;;;;;;;;;;;;;;4.26;97.81;100189.13;6245722;23;19918;-90
2022/05/14 08:02:05;;;;;;;;;;;;;;;4.33;97.87;100188.19;6246077;23;19911;-92
2022/05/14 08:04:31;;;;;;;;;;;;;;;4.31;97.89;100189.97;6245666;23;19916;-91
2022/05/14 08:06:56;;;;;;;;;;;;;;;4.34;98.25;100192.53;6244169;23;19934;-91
2022/05/14 08:09:21;;;;;;;;;;;;;;;4.90;100.00;100188.38;6245717;23;20224;-92
2022/05/14 08:11:47;;;;;;;;;;;;;;;5.33;100.00;100188.66;6218699;23;19922;-88
2022/05/14 08:14:12;;;;;;;;;;;;;;;5.62;100.00;100191.69;6245547;23;19911;-91
2022/05/14 08:16:37;;;;;;;;;;;;;;;5.03;100.00;100186.44;6245569;23;19938;-91
2022/05/14 08:19:03;;;;;;;;;;;;;;;4.74;100.00;100189.47;6245572;23;19963;-92
2022/05/14 08:24:31;;;;;;;;;;;;;;;5.09;100.00;100182.88;6245530;23;19918;-92
2022/05/14 08:26:59;;;;;;;;;;;;;;;5.56;100.00;100181.28;6245500;23;19990;-93
2022/05/14 08:29:25;;;;;;;;;;;;;;;5.70;100.00;100180.22;6218743;23;20275;-92
2022/05/14 08:31:50;;;;;;;;;;;;;;;5.08;100.00;100183.75;6245356;23;19958;-92
2022/05/14 08:34:15;;;;;;;;;;;;;;;4.91;100.00;100181.34;6245379;23;20021;-90
2022/05/14 08:36:42;;;;;;;;;;;;;;;4.83;100.00;100181.44;6244181;23;19958;-89
2022/05/14 08:39:07;;;;;;;;;;;;;;;4.72;100.00;100180.72;6245408;23;19969;-91
2022/05/14 08:41:35;;;;;;;;;;;;;;;4.71;100.00;100176.38;6245415;23;19995;-88
2022/05/14 08:44:04;;;;;;;;;;;;;;;4.73;100.00;100174.59;6245264;23;19915;-91
2022/05/14 08:46:30;;;;;;;;;;;;;;;4.71;100.00;100171.13;6245694;23;19915;-91
2022/05/14 08:48:59;;;;;;;;;;;;;;;4.65;99.46;100164.19;6245284;23;19966;-91
2022/05/14 08:51:27;;;;;;;;;;;;;;;4.63;99.09;100170.38;6243682;23;20266;-90
2022/05/14 08:53:53;;;;;;;;;;;;;;;4.66;99.02;100167.66;6244994;23;19969;-90
2022/05/14 08:56:21;;;;;;;;;;;;;;;4.72;99.28;100165.88;6245191;23;19911;-91
2022/05/14 08:58:52;;;;;;;;;;;;;;;5.32;100.00;100164.13;6245179;23;20351;-92
2022/05/14 09:01:20;;;;;;;;;;;;;;;5.75;100.00;100165.22;6245175;23;19911;-92
2022/05/14 09:03:46;;;;;;;;;;;;;;;5.52;100.00;100168.22;6244989;23;20030;-91
2022/05/14 09:06:14;;;;;;;;;;;;;;;5.08;100.00;100163.59;6216768;23;19947;-92
2022/05/14 09:08:40;;;;;;;;;;;;;;;4.99;100.00;100160.25;6245524;23;19911;-91
2022/05/14 09:11:11;;;;;;;;;;;;;;;5.61;100.00;100160.19;6218163;23;20382;-92
2022/05/14 09:13:51;;;;;;;;;;;;;;;5.95;100.00;100160.47;6218255;23;19911;-91
2022/05/14 09:16:26;;;;;;;;;;;;;;;6.03;100.00;100157.75;6218465;23;19978;-91
2022/05/14 09:18:53;;;;;;;;;;;;;;;5.44;100.00;100165.69;6218222;23;19908;-91
2022/05/14 09:21:24;;;;;;;;;;;;;;;5.92;100.00;100162.28;6217129;23;19998;-92
2022/05/14 09:23:54;;;;;;;;;;;;;;;6.24;100.00;100156.47;6218123;23;19994;-92
2022/05/14 09:26:28;;;;;;;;;;;;;;;6.11;100.00;100157.56;6245209;23;19911;-91
2022/05/14 09:28:55;;;;;;;;;;;;;;;5.59;100.00;100160.19;6245036;23;19912;-91
2022/05/14 09:31:26;;;;;;;;;;;;;;;5.94;100.00;100152.63;6245129;23;19966;-91
2022/05/14 09:33:59;;;;;;;;;;;;;;;6.31;100.00;100154.59;6244969;23;19916;-90
2022/05/14 09:36:28;;;;;;;;;;;;;;;6.30;100.00;100156.34;6216708;23;19920;-91
2022/05/14 09:39:00;;;;;;;;;;;;;;;5.73;100.00;100153.88;6245023;23;19911;-91
2022/05/14 09:41:25;;;;;;;;;;;;;;;5.54;100.00;100162.03;6244935;23;19912;-93
2022/05/14 09:47:17;;;;;;;;;;;;;;;6.29;100.00;100161.66;6177533;23;19935;-91
2022/05/14 09:49:53;;;;;;;;;;;;;;;6.39;100.00;100146.53;6245263;23;19946;-91
2022/05/14 09:52:22;;;;;;;;;;;;;;;5.72;100.00;100146.84;6244703;23;19915;-91
2022/05/14 09:54:50;;;;;;;;;;;;;;;5.50;100.00;100143.72;6244964;23;19916;-92
2022/05/14 09:57:31;;;;;;;;;;;;;;;5.44;100.00;100137.69;6218160;23;19916;-91
2022/05/14 10:03:27;;;;;;;;;;;;;;;6.43;100.00;100135.91;6177656;23;19961;-90
2022/05/14 10:05:52;;;;;;;;;;;;;;;5.87;100.00;100133.44;6150344;23;20003;-90
2022/05/14 10:08:20;;;;;;;;;;;;;;;5.58;100.00;100133.94;6152102;23;20348;-90
2022/05/14 10:11:06;;;;;;;;;;;;;;;5.50;100.00;100136.69;6151955;23;19948;-94
2022/05/14 10:13:49;;;;;;;;;;;;;;;6.07;100.00;100140.13;6126876;23;19912;-91
2022/05/14 10:19:45;;;;;;;;;;;;;;;6.24;100.00;100132.78;6155930;23;20642;-90
2022/05/14 10:31:01;;;;;;;;;;;;;;;6.06;100.00;100125.22;6186158;23;19923;-89
2022/05/14 10:33:29;;;;;;;;;;;;;;;6.22;100.00;100129.28;6159654;23;19913;-88
2022/05/14 10:36:04;;;;;;;;;;;;;;;6.62;100.00;100115.34;6158530;23;19912;-89
2022/05/14 10:38:31;;;;;;;;;;;;;;;6.63;100.00;100113.56;6186357;23;19955;-89
2022/05/14 10:41:03;;;;;;;;;;;;;;;5.97;100.00;100116.63;6186053;23;19947;-89
2022/05/14 10:43:51;;;;;;;;;;;;;;;5.75;100.00;100110.00;6186072;23;19920;-89
2022/05/14 10:46:19;;;;;;;;;;;;;;;5.66;100.00;100118.03;6185782;23;19943;-89
2022/05/14 10:49:12;;;;;;;;;;;;;;;5.50;100.00;100109.53;6184753;23;19916;-89
2022/05/14 10:54:16;;;;;;;;;;;;;;;5.48;100.00;100109.56;6215789;22;19923;-90
2022/05/14 10:57:05;;;;;;;;;;;;;;;6.02;100.00;100110.41;6189439;23;19974;-88
2022/05/14 10:59:41;;;;;;;;;;;;;;;6.42;100.00;100107.84;6215026;23;19923;-88
2022/05/14 11:02:12;;;;;;;;;;;;;;;6.24;100.00;100102.94;6215833;23;19919;-90
2022/05/14 11:04:41;;;;;;;;;;;;;;;5.86;100.00;100107.19;6216171;23;19912;-88
2022/05/14 11:07:09;;;;;;;;;;;;;;;5.68;100.00;100096.09;6187891;23;19943;-88
2022/05/14 11:09:34;;;;;;;;;;;;;;;6.34;100.00;100099.25;6215798;22;19920;-88
2022/05/14 11:12:01;;;;;;;;;;;;;;;6.65;100.00;100099.47;6189197;23;20296;-90
2022/05/14 11:14:42;;;;;;;;;;;;;;;6.48;100.00;100104.25;6189519;23;19916;-89
2022/05/14 11:17:20;;;;;;;;;;;;;;;5.91;100.00;100103.56;6189054;23;19958;-89
2022/05/14 11:20:04;;;;;;;;;;;;;;;;;;;;;
2022/05/14 11:22:33;;;;;;;;;;;;;;;6.73;100.00;100105.44;6215604;23;20007;-89
2022/05/14 11:25:24;;;;;;;;;;;;;;;6.46;100.00;100096.38;6189105;23;19939;-91
2022/05/14 11:27:55;;;;;;;;;;;;;;;5.95;100.00;100104.34;6195415;23;19966;-88
2022/05/14 11:30:43;;;;;;;;;;;;;;;5.81;100.00;100099.38;6215609;23;19939;-89
2022/05/14 11:33:17;;;;;;;;;;;;;;;6.47;100.00;100089.34;6188889;23;20437;-89
2022/05/14 11:35:44;;;;;;;;;;;;;;;6.79;100.00;100085.13;6213689;23;19942;-88
2022/05/14 11:38:29;;;;;;;;;;;;;;;6.67;100.00;100084.50;6188118;23;19954;-88
2022/05/14 11:41:17;;;;;;;;;;;;;;;6.29;100.00;100083.56;6215617;23;19912;-89
2022/05/14 11:43:43;;;;;;;;;;;;;;;6.83;100.00;100089.41;6187099;23;19912;-88
2022/05/14 11:46:27;;;;;;;;;;;;;;;6.99;100.00;100085.53;6188752;23;19911;-89
2022/05/14 11:49:04;;;;;;;;;;;;;;;6.33;100.00;100079.97;6215860;23;19923;-89
2022/05/14 11:51:38;;;;;;;;;;;;;;;6.02;100.00;100078.84;6214010;23;19947;-89
2022/05/14 11:54:14;;;;;;;;;;;;;;;5.91;100.00;100066.72;6189066;23;19915;-88
2022/05/14 11:56:44;;;;;;;;;;;;;;;6.32;100.00;100070.34;6188751;23;19912;-88
2022/05/14 11:59:13;;;;;;;;;;;;;;;6.76;100.00;100066.75;6215000;23;19908;-88
2022/05/14 12:01:39;;;;;;;;;;;;;;;6.98;100.00;100068.00;6189022;23;19911;-89
2022/05/14 12:04:09;;;;;;;;;;;;;;;6.28;100.00;100073.06;6189018;23;20488;-87
2022/05/14 12:06:37;;;;;;;;;;;;;;;5.94;100.00;100073.69;6213881;23;19958;-89
2022/05/14 12:09:18;;;;;;;;;;;;;;;5.91;100.00;100073.75;6188794;23;19908;-89
2022/05/14 12:11:58;;;;;;;;;;;;;;;5.81;100.00;100066.03;6215142;23;19912;-89
2022/05/14 12:14:31;;;;;;;;;;;;;;;5.88;100.00;100066.78;6214464;23;19923;-89
2022/05/14 12:19:29;;;;;;;;;;;;;;;6.83;100.00;100052.53;6214890;22;19924;-89
2022/05/14 12:22:20;;;;;;;;;;;;;;;6.41;100.00;100056.09;6187140;23;20366;-88
2022/05/14 12:24:53;;;;;;;;;;;;;;;5.94;100.00;100052.66;6188876;23;19920;-89
2022/05/14 12:27:20;;;;;;;;;;;;;;;5.82;100.00;100052.00;6215350;23;19916;-90
2022/05/14 12:29:59;;;;;;;;;;;;;;;6.29;100.00;100049.34;6215505;23;19916;-89
2022/05/14 12:35:25;;;;;;;;;;;;;;;6.73;100.00;100036.09;6213289;23;19938;-89
2022/05/14 12:37:55;;;;;;;;;;;;;;;6.03;100.00;100038.47;6215022;23;19912;-89
2022/05/14 12:40:26;;;;;;;;;;;;;;;5.87;100.00;100038.78;6214632;23;19955;-88
2022/05/14 12:42:52;;;;;;;;;;;;;;;5.75;100.00;100039.00;6188566;23;20216;-88
2022/05/14 12:45:17;;;;;;;;;;;;;;;5.71;100.00;100037.31;6215264;23;20002;-89
2022/05/14 12:47:42;;;;;;;;;;;;;;;5.70;100.00;100035.59;6215186;23;20276;-89
2022/05/14 12:50:20;;;;;;;;;;;;;;;6.30;100.00;100022.13;6213636;23;19970;-89
2022/05/14 12:52:54;;;;;;;;;;;;;;;6.65;100.00;100023.13;6214898;23;19912;-90
2022/05/14 12:55:20;;;;;;;;;;;;;;;6.52;100.00;100013.75;6188009;23;19912;-89
2022/05/14 12:57:46;;;;;;;;;;;;;;;6.06;100.00;100020.84;6188469;23;20312;-89
2022/05/14 13:00:15;;;;;;;;;;;;;;;6.40;100.00;100009.63;6188178;23;19939;-89
2022/05/14 13:02:42;;;;;;;;;;;;;;;6.75;100.00;100007.97;6188592;23;19912;-90
2022/05/14 13:05:09;;;;;;;;;;;;;;;6.95;100.00;100006.59;6187014;23;19916;-89
2022/05/14 13:07:42;;;;;;;;;;;;;;;6.23;100.00;100012.63;6215139;23;19947;-89
2022/05/14 13:10:08;;;;;;;;;;;;;;;6.02;100.00;100015.72;6214590;23;19919;-89
2022/05/14 13:12:33;;;;;;;;;;;;;;;6.62;100.00;100003.88;6188500;23;19918;-89
2022/05/14 13:15:01;;;;;;;;;;;;;;;6.86;100.00;99995.41;6188481;23;19947;-89
2022/05/14 13:17:34;;;;;;;;;;;;;;;6.82;100.00;99992.88;6214457;23;19915;-89
2022/05/14 13:20:00;;;;;;;;;;;;;;;6.18;100.00;99996.06;6213475;23;19916;-88
2022/05/14 13:22:28;;;;;;;;;;;;;;;5.99;100.00;99995.59;6187787;23;20350;-89
2022/05/14 13:24:54;;;;;;;;;;;;;;;5.82;100.00;99998.53;6214639;23;19916;-89
2022/05/14 13:27:31;;;;;;;;;;;;;;;5.84;100.00;99988.88;6214133;23;19908;-89
2022/05/14 13:30:01;;;;;;;;;;;;;;;6.18;100.00;99973.25;6215127;23;19982;-88
2022/05/14 13:32:27;;;;;;;;;;;;;;;6.63;100.00;99971.38;6214920;23;19936;-89
2022/05/14 13:37:50;;;;;;;;;;;;;;;6.22;100.00;99968.78;6214583;23;19975;-91
2022/05/14 13:40:25;;;;;;;;;;;;;;;6.67;100.00;99973.91;6214543;23;20340;-88
2022/05/14 13:42:53;;;;;;;;;;;;;;;7.01;100.00;99969.59;6214630;23;19916;-89
2022/05/14 13:45:30;;;;;;;;;;;;;;;6.82;100.00;99969.16;6214478;23;19938;-88
2022/05/14 13:47:58;;;;;;;;;;;;;;;6.43;100.00;99961.31;6214540;23;19912;-89
2022/05/14 13:50:25;;;;;;;;;;;;;;;6.93;100.00;99961.88;6213694;23;19912;-88
2022/05/14 13:52:51;;;;;;;;;;;;;;;7.21;100.00;99963.78;6216653;23;19970;-88
2022/05/14 13:55:27;;;;;;;;;;;;;;;6.82;100.00;99971.81;6216841;23;19920;-88
2022/05/14 13:57:54;;;;;;;;;;;;;;;6.55;100.00;99967.16;6216430;23;19987;-88
2022/05/14 14:00:23;;;;;;;;;;;;;;;7.04;100.00;99961.59;6190004;23;19998;-88
2022/05/14 14:03:06;;;;;;;;;;;;;;;7.18;100.00;99955.94;6216934;23;19994;-88
2022/05/14 14:05:32;;;;;;;;;;;;;;;6.54;100.00;99951.38;6214921;23;19940;-88
2022/05/14 14:07:58;;;;;;;;;;;;;;;6.26;100.00;99952.03;6216504;23;20295;-89
2022/05/14 14:10:33;;;;;;;;;;;;;;;6.53;100.00;99952.31;6216163;23;19916;-89
2022/05/14 14:13:00;;;;;;;;;;;;;;;7.01;100.00;99949.34;6216473;23;19912;-88
2022/05/14 14:15:26;;;;;;;;;;;;;;;7.13;100.00;99949.94;6189545;23;19919;-88
2022/05/14 14:17:52;;;;;;;;;;;;;;;6.48;100.00;99951.56;6216090;23;19916;-88
2022/05/14 14:20:18;;;;;;;;;;;;;;;6.56;100.00;99954.88;6214750;23;19916;-89
2022/05/14 14:22:43;;;;;;;;;;;;;;;7.02;100.00;99939.69;6189959;23;20235;-89
2022/05/14 14:25:09;;;;;;;;;;;;;;;7.20;100.00;99938.34;6189556;23;20387;-88
2022/05/14 14:27:35;;;;;;;;;;;;;;;6.58;100.00;99937.25;6216534;23;19923;-90
2022/05/14 14:30:00;;;;;;;;;;;;;;;6.26;100.00;99936.25;6216338;23;19974;-88
2022/05/14 14:32:26;;;;;;;;;;;;;;;6.77;100.00;99921.88;6216170;23;19916;-89
2022/05/14 14:34:52;;;;;;;;;;;;;;;7.14;100.00;99930.59;6216414;23;19946;-88
2022/05/14 14:37:17;;;;;;;;;;;;;;;6.95;100.00;99928.44;6214571;23;19920;-89
2022/05/14 14:39:44;;;;;;;;;;;;;;;6.40;100.00;99920.13;6189383;23;19916;-89
2022/05/14 14:42:10;;;;;;;;;;;;;;;6.80;100.00;99926.22;6189445;23;19912;-87
2022/05/14 14:44:35;;;;;;;;;;;;;;;7.09;100.00;99923.66;6216025;23;19995;-88
2022/05/14 14:47:00;;;;;;;;;;;;;;;7.18;100.00;99921.69;6216316;23;19912;-87
2022/05/14 14:49:26;;;;;;;;;;;;;;;6.59;100.00;99915.31;6215942;23;19916;-90
2022/05/14 14:51:51;;;;;;;;;;;;;;;7.39;100.00;99910.56;6188370;23;19962;-87
2022/05/14 14:54:16;;;;;;;;;;;;;;;7.36;100.00;99915.06;6215756;23;19948;-87
2022/05/14 14:56:41;;;;;;;;;;;;;;;7.31;100.00;99907.28;6215910;23;19912;-87
2022/05/14 14:59:07;;;;;;;;;;;;;;;6.63;100.00;99913.44;6215830;23;19915;-87
2022/05/14 15:01:37;;;;;;;;;;;;;;;7.05;100.00;99911.50;6215829;23;19912;-87
2022/05/14 15:04:11;;;;;;;;;;;;;;;7.31;100.00;99909.94;6215742;23;20232;-87
2022/05/14 15:06:36;;;;;;;;;;;;;;;6.97;100.00;99902.91;6214534;23;19921;-87
2022/05/14 15:09:01;;;;;;;;;;;;;;;6.60;100.00;99905.63;6215661;23;19993;-87
2022/05/14 15:11:28;;;;;;;;;;;;;;;7.11;100.00;99914.88;6215623;23;19920;-87
2022/05/14 15:13:56;;;;;;;;;;;;;;;7.30;100.00;99902.91;6189445;23;19958;-87
2022/05/14 15:16:21;;;;;;;;;;;;;;;6.72;100.00;99902.69;6188996;23;19924;-86
2022/05/14 15:18:46;;;;;;;;;;;;;;;6.64;100.00;99900.25;6215936;23;20239;-87
2022/05/14 15:21:11;;;;;;;;;;;;;;;7.15;100.00;99904.22;6214327;23;19912;-86
2022/05/14 15:23:37;;;;;;;;;;;;;;;7.36;100.00;99900.13;6215538;23;19920;-86
2022/05/14 15:26:02;;;;;;;;;;;;;;;6.83;100.00;99900.66;6215751;23;19912;-87
2022/05/14 15:28:31;;;;;;;;;;;;;;;6.63;100.00;99898.50;6215074;23;19912;-87
2022/05/14 15:30:58;;;;;;;;;;;;;;;7.14;100.00;99898.97;6188263;23;19912;-89
2022/05/14 15:33:23;;;;;;;;;;;;;;;7.36;100.00;99889.56;6213596;23;20221;-87
2022/05/14 15:35:51;;;;;;;;;;;;;;;6.78;100.00;99891.13;6213679;23;19912;-91
2022/05/14 15:38:16;;;;;;;;;;;;;;;6.99;100.00;99890.59;6214297;23;19994;-87
2022/05/14 15:40:45;;;;;;;;;;;;;;;7.31;100.00;99882.69;6188274;23;20503;-88
2022/05/14 15:43:13;;;;;;;;;;;;;;;7.38;100.00;99886.91;6214252;23;19962;-87
2022/05/14 15:45:46;;;;;;;;;;;;;;;6.69;100.00;99886.97;6215431;23;19912;-87
2022/05/14 15:48:20;;;;;;;;;;;;;;;7.15;100.00;99884.88;6188105;23;19916;-86
2022/05/14 15:50:46;;;;;;;;;;;;;;;7.41;100.00;99882.38;6186915;23;19912;-87
2022/05/14 15:53:13;;;;;;;;;;;;;;;6.91;100.00;99893.41;6214324;23;19958;-87
2022/05/14 15:55:42;;;;;;;;;;;;;;;6.45;100.00;99881.41;6214958;23;19912;-88
2022/05/14 15:58:07;;;;;;;;;;;;;;;6.31;100.00;99887.00;6188331;23;20244;-87
2022/05/14 16:00:35;;;;;;;;;;;;;;;6.28;100.00;99888.84;6188642;23;19935;-87
2022/05/14 16:03:03;;;;;;;;;;;;;;;6.18;100.00;99880.31;6214155;23;19921;-89
2022/05/14 16:05:28;;;;;;;;;;;;;;;6.66;100.00;99873.88;6213123;23;19916;-86
2022/05/14 16:07:55;;;;;;;;;;;;;;;7.06;100.00;99871.06;6215206;23;20336;-89
2022/05/14 16:15:53;;;;;;;;;;;;;;;6.15;100.00;99873.34;6213501;23;19938;-86
2022/05/14 16:18:19;;;;;;;;;;;;;;;6.14;100.00;99870.72;6214332;23;19927;-86
2022/05/14 16:20:45;;;;;;;;;;;;;;;6.09;100.00;99867.34;6185995;23;20235;-86
2022/05/14 16:23:10;;;;;;;;;;;;;;;6.55;100.00;99866.25;6214146;23;19946;-86
2022/05/14 16:25:35;;;;;;;;;;;;;;;6.96;100.00;99863.47;6214982;23;20354;-87
2022/05/14 16:28:01;;;;;;;;;;;;;;;7.14;100.00;99860.31;6214043;23;19919;-86
2022/05/14 16:30:26;;;;;;;;;;;;;;;6.46;100.00;99851.56;6214546;23;19916;-86
2022/05/14 16:32:55;;;;;;;;;;;;;;;6.22;100.00;99860.03;6214206;23;19912;-86
2022/05/14 16:35:21;;;;;;;;;;;;;;;6.78;100.00;99854.25;6212528;23;19912;-86
2022/05/14 16:37:47;;;;;;;;;;;;;;;7.09;100.00;99852.53;6214528;23;19998;-86
2022/05/14 16:40:15;;;;;;;;;;;;;;;6.79;100.00;99850.72;6213764;23;19912;-87
2022/05/14 16:42:41;;;;;;;;;;;;;;;6.30;100.00;99847.56;6188369;23;19912;-89
2022/05/14 16:45:07;;;;;;;;;;;;;;;6.20;100.00;99846.06;6186842;23;19974;-89
2022/05/14 16:47:32;;;;;;;;;;;;;;;6.76;100.00;99850.81;6188139;23;19912;-87
2022/05/14 16:49:58;;;;;;;;;;;;;;;7.05;100.00;99850.00;6214077;23;19944;-87
2022/05/14 16:52:23;;;;;;;;;;;;;;;6.69;100.00;99843.06;6213202;23;19919;-87
2022/05/14 16:54:48;;;;;;;;;;;;;;;6.31;100.00;99847.53;6213354;23;19919;-87
2022/05/14 16:57:14;;;;;;;;;;;;;;;6.16;100.00;99859.28;6214486;23;19991;-87
2022/05/14 16:59:39;;;;;;;;;;;;;;;6.09;100.00;99856.84;6212955;23;19912;-87
2022/05/14 17:02:06;;;;;;;;;;;;;;;6.03;100.00;99857.84;6213477;23;20436;-87
2022/05/14 17:04:31;;;;;;;;;;;;;;;5.99;100.00;99859.66;6213861;23;19916;-86
2022/05/14 17:06:56;;;;;;;;;;;;;;;5.90;100.00;99851.94;6186204;23;19982;-86
2022/05/14 17:09:22;;;;;;;;;;;;;;;5.86;100.00;99847.69;6214335;23;19919;-86
2022/05/14 17:11:47;;;;;;;;;;;;;;;6.05;100.00;99855.16;6213173;23;19927;-87
2022/05/14 17:14:13;;;;;;;;;;;;;;;6.63;100.00;99843.22;6213082;23;19916;-86
2022/05/14 17:16:39;;;;;;;;;;;;;;;6.93;100.00;99837.19;6213514;23;19994;-87
2022/05/14 17:19:04;;;;;;;;;;;;;;;6.48;100.00;99846.25;6163471;23;19951;-87
2022/05/14 17:21:29;;;;;;;;;;;;;;;6.11;100.00;99837.50;6186174;23;19916;-87
2022/05/14 17:23:54;;;;;;;;;;;;;;;5.94;100.00;99843.09;6214035;23;19912;-86
2022/05/14 17:26:20;;;;;;;;;;;;;;;5.92;100.00;99838.75;6213825;23;19994;-88
2022/05/14 17:28:45;;;;;;;;;;;;;;;5.92;100.00;99838.75;6214033;23;19912;-86
2022/05/14 17:31:10;;;;;;;;;;;;;;;6.16;100.00;99846.13;6214097;23;19923;-87
2022/05/14 17:33:36;;;;;;;;;;;;;;;6.68;100.00;99835.19;6214065;23;19919;-87
2022/05/14 17:36:01;;;;;;;;;;;;;;;6.92;100.00;99836.31;6211556;23;19919;-87
2022/05/14 17:41:15;;;;;;;;;;;;;;;6.00;100.00;99837.75;6212918;23;20315;-87
2022/05/14 17:43:41;;;;;;;;;;;;;;;5.92;100.00;99826.50;6187505;23;19966;-90
2022/05/14 17:46:06;;;;;;;;;;;;;;;5.83;100.00;99835.44;6213977;23;19912;-89
2022/05/14 17:48:42;;;;;;;;;;;;;;;;;;;;;
2022/05/14 17:51:07;;;;;;;;;;;;;;;5.74;100.00;99837.41;6211153;22;20007;-89
2022/05/14 17:53:33;;;;;;;;;;;;;;;5.75;100.00;99833.91;6186841;23;19947;-89
2022/05/14 17:56:04;;;;;;;;;;;;;;;6.31;100.00;99825.59;6187843;23;19916;-90
2022/05/14 17:58:29;;;;;;;;;;;;;;;6.70;100.00;99826.38;6212571;23;19915;-87
2022/05/14 18:00:54;;;;;;;;;;;;;;;6.42;100.00;99827.97;6214310;23;19912;-89
2022/05/14 18:03:20;;;;;;;;;;;;;;;6.01;100.00;99833.34;6213378;23;20236;-89
2022/05/14 18:05:45;;;;;;;;;;;;;;;5.89;100.00;99831.84;6186275;23;19907;-88
2022/05/14 18:08:11;;;;;;;;;;;;;;;5.83;100.00;99837.22;6213120;23;19916;-87
2022/05/14 18:11:40;;;;;;;;;;;;;;;6.38;100.00;99829.81;6187560;23;19998;-87
2022/05/14 18:13:22;;;;;;;;;;;;;;;6.80;100.00;99826.13;6213905;23;19999;-88
2022/05/14 18:15:48;;;;;;;;;;;;;;;6.54;100.00;99832.91;6187576;23;19950;-87
2022/05/14 18:18:14;;;;;;;;;;;;;;;6.07;100.00;99838.44;6214150;23;19935;-87
2022/05/14 18:20:39;;;;;;;;;;;;;;;5.97;100.00;99837.81;6186077;23;19912;-87
2022/05/14 18:23:04;;;;;;;;;;;;;;;5.89;100.00;99837.09;6214028;23;19915;-86
2022/05/14 18:25:29;;;;;;;;;;;;;;;6.14;100.00;99828.63;6214299;23;20218;-89
2022/05/14 18:27:58;;;;;;;;;;;;;;;6.66;100.00;99829.97;6214501;23;19967;-86
2022/05/14 18:30:30;;;;;;;;;;;;;;;6.94;100.00;99833.63;6213878;23;19922;-87
2022/05/14 18:32:59;;;;;;;;;;;;;;;6.31;100.00;99830.88;6213310;23;19922;-87
2022/05/14 18:35:27;;;;;;;;;;;;;;;6.07;100.00;99833.19;6185943;23;20658;-87
2022/05/14 18:37:55;;;;;;;;;;;;;;;5.92;100.00;99837.03;6212957;23;19973;-86
2022/05/14 18:40:23;;;;;;;;;;;;;;;6.07;100.00;99833.19;6187995;23;20134;-87
2022/05/14 18:42:49;;;;;;;;;;;;;;;6.69;100.00;99832.53;6215506;23;19912;-86
2022/05/14 18:45:15;;;;;;;;;;;;;;;6.97;100.00;99837.03;6215319;23;19938;-87
2022/05/14 18:47:41;;;;;;;;;;;;;;;6.63;100.00;99840.59;6188865;23;20309;-88
2022/05/14 18:50:07;;;;;;;;;;;;;;;6.31;100.00;99839.63;6187536;23;19920;-87
2022/05/14 18:52:33;;;;;;;;;;;;;;;6.83;100.00;99833.91;6214993;23;19916;-86
2022/05/14 18:54:58;;;;;;;;;;;;;;;7.10;100.00;99832.34;6187837;23;19923;-87
2022/05/14 18:57:23;;;;;;;;;;;;;;;6.81;100.00;99830.47;6214850;23;20303;-89
2022/05/14 18:59:51;;;;;;;;;;;;;;;6.42;100.00;99833.25;6213627;23;19916;-86
2022/05/14 19:02:17;;;;;;;;;;;;;;;6.94;100.00;99829.25;6189635;23;19916;-87
2022/05/14 19:07:27;;;;;;;;;;;;;;;6.80;100.00;99837.53;6214144;23;19938;-87
2022/05/14 19:09:54;;;;;;;;;;;;;;;6.89;100.00;99839.03;6214613;23;20368;-88
2022/05/14 19:12:20;;;;;;;;;;;;;;;7.25;100.00;99846.84;6187849;23;20431;-85
2022/05/14 19:14:46;;;;;;;;;;;;;;;7.41;100.00;99839.34;6214499;23;19923;-86
2022/05/14 19:17:12;;;;;;;;;;;;;;;6.80;100.00;99845.41;6215027;23;19939;-86
2022/05/14 19:19:40;;;;;;;;;;;;;;;7.20;100.00;99848.75;6215258;23;20422;-87
2022/05/14 19:22:05;;;;;;;;;;;;;;;7.42;100.00;99847.22;6211010;23;20363;-87
2022/05/14 19:24:30;;;;;;;;;;;;;;;7.20;100.00;99844.31;6214031;23;19912;-89
2022/05/14 19:26:56;;;;;;;;;;;;;;;7.02;100.00;99844.81;6214298;23;20050;-87
2022/05/14 19:29:21;;;;;;;;;;;;;;;7.38;100.00;99848.19;6214660;23;19931;-89
2022/05/14 19:31:46;;;;;;;;;;;;;;;7.54;100.00;99860.97;6214381;23;20255;-89
2022/05/14 19:34:12;;;;;;;;;;;;;;;6.92;100.00;99857.38;6215128;23;19912;-88
2022/05/14 19:36:41;;;;;;;;;;;;;;;7.02;100.00;99861.53;6214133;23;20010;-88
2022/05/14 19:39:07;;;;;;;;;;;;;;;7.40;100.00;99862.22;6214868;23;20003;-87
2022/05/14 19:41:48;;;;;;;;;;;;;;;7.48;100.00;99864.63;6214183;23;20351;-87
2022/05/14 19:44:31;;;;;;;;;;;;;;;6.72;100.00;99866.69;6213625;23;20214;-87
2022/05/14 19:46:58;;;;;;;;;;;;;;;7.20;100.00;99865.41;6214759;23;20421;-87